Tomofujimaru — JL6701 — position and weather

sailwx.info

Track history (hours):
 
Tides and Currents Weather Stations Pressure Air Temp Water Temp Dewpoint Dewpoint Depression Visibility Wind Speed Wind Dir Waves Ship Positions

Tomofujimaru

Last reported at 2018-Jun-19 10:00 UTC. Time now 2018-Jun-19 10:25 UTC.
Position N 34°35' E 135°04'.

Length 104 m; draft 5.4 m.

Type: Tanker. MMSI: 431501737.

Date/timePositionNaut miles runAvg speedWind from/ knotsBaromVisibWave heightAir tempDewpointWater temp
2018-Jun-19 10:00N 34°35' E 135°04'714.9
2018-Jun-19 09:30N 34°36' E 134°55'815.3
2018-Jun-19 09:00N 34°32' E 134°47'713.9
2018-Jun-19 08:30N 34°30' E 134°39'713.8
2018-Jun-19 08:00N 34°27' E 134°31'713.6
2018-Jun-19 07:28N 34°24' E 134°23'  
2018-Jun-15 17:07N 34°25' E 134°23'212.7
2018-Jun-15 16:59N 34°26' E 134°25'613.2
2018-Jun-15 16:30N 34°28' E 134°32'713.1
2018-Jun-15 16:00N 34°31' E 134°40'714.0
2018-Jun-15 15:30N 34°33' E 134°48'814.7
2018-Jun-15 14:59N 34°37' E 134°56'613.2
2018-Jun-15 14:30N 34°36' E 135°04'612.7
2018-Jun-15 14:00N 34°36' E 135°11'713.1
2018-Jun-15 13:30N 34°36' E 135°19'510.8
2018-Jun-15 13:00N 34°39' E 135°25'0 0.8
2018-Jun-15 12:28N 34°40' E 135°25'0 0.0
2018-Jun-15 11:58N 34°40' E 135°25'0 0.0
2018-Jun-14 22:06N 34°40' E 135°25'0 0.0
2018-Jun-14 22:00N 34°40' E 135°25'2 3.6
2018-Jun-14 21:30N 34°38' E 135°24'4 8.9
2018-Jun-14 21:00N 34°36' E 135°19'0 0.0
2018-Jun-14 20:29N 34°36' E 135°19'0 0.0
2018-Jun-14 19:55N 34°36' E 135°19'0 0.0
2018-Jun-14 19:25N 34°36' E 135°19'0 0.0
2018-Jun-14 18:55N 34°36' E 135°19'0 0.0
2018-Jun-14 18:25N 34°36' E 135°19'0 0.0
2018-Jun-14 17:55N 34°36' E 135°19'0 0.0
2018-Jun-14 17:25N 34°36' E 135°19'0 0.0
2018-Jun-14 16:55N 34°36' E 135°19'0 0.0
2018-Jun-14 16:28N 34°36' E 135°19'0 0.0
2018-Jun-14 15:55N 34°36' E 135°19'0 0.0
2018-Jun-14 15:19N 34°36' E 135°19'0 0.0
2018-Jun-14 14:55N 34°36' E 135°19'0 0.0
2018-Jun-14 14:25N 34°36' E 135°19'0 0.0
2018-Jun-14 13:55N 34°36' E 135°19'0 0.0
2018-Jun-14 13:25N 34°36' E 135°19'0 0.0
2018-Jun-14 12:49N 34°36' E 135°19'0 0.0
2018-Jun-14 12:25N 34°36' E 135°19'0 0.0
2018-Jun-14 11:55N 34°36' E 135°19'0 0.1
2018-Jun-14 11:25N 34°36' E 135°19'0 0.0
2018-Jun-14 10:43N 34°36' E 135°19'0 0.0
2018-Jun-14 10:25N 34°36' E 135°19'0 0.1
2018-Jun-14 09:55N 34°36' E 135°19'2 4.8
2018-Jun-14 09:30N 34°35' E 135°17'712.9
2018-Jun-14 09:00N 34°29' E 135°13'613.1
2018-Jun-14 08:30N 34°24' E 135°08'713.5
2018-Jun-14 08:01N 34°20' E 135°02'612.5
2018-Jun-14 07:30N 34°14' E 134°59'611.5
2018-Jun-14 07:00N 34°08' E 134°59'713.3
2018-Jun-14 06:30N 34°01' E 134°60'713.2
2018-Jun-14 06:00N 33°55' E 135°01'612.1
2018-Jun-14 05:30N 33°49' E 135°05'23911.2
2018-Jun-13 08:09N 35°05' E 139°40'212.9
2018-Jun-13 07:58N 35°07' E 139°42'612.8
2018-Jun-13 07:30N 35°12' E 139°46'612.1
2018-Jun-13 07:00N 35°17' E 139°44'612.4
2018-Jun-13 06:30N 35°23' E 139°42'612.5
2018-Jun-13 06:00N 35°28' E 139°47'3 6.7
2018-Jun-13 05:30N 35°32' E 139°46'0 0.1
2018-Jun-13 05:00N 35°32' E 139°46'0 0.0
2018-Jun-12 22:31N 35°32' E 139°46'0 0.0
2018-Jun-12 22:30N 35°32' E 139°46'1 1.4
2018-Jun-12 22:00N 35°31' E 139°46'4 8.4
2018-Jun-12 21:30N 35°28' E 139°42'4 8.5
2018-Jun-12 21:00N 35°25' E 139°45'1 1.5
2018-Jun-12 20:30N 35°24' E 139°45'0 0.0
2018-Jun-12 19:57N 35°24' E 139°45'0 0.0
2018-Jun-12 19:30N 35°24' E 139°45'0 0.0
2018-Jun-12 19:00N 35°24' E 139°45'0 0.0
2018-Jun-12 18:30N 35°24' E 139°45'0 0.0
2018-Jun-12 18:00N 35°24' E 139°45'0 0.0
2018-Jun-12 17:30N 35°24' E 139°45'0 0.0
2018-Jun-12 17:00N 35°24' E 139°45'0 0.0
2018-Jun-12 16:30N 35°24' E 139°45'0 0.0
2018-Jun-12 16:00N 35°24' E 139°45'0 0.0
2018-Jun-12 15:30N 35°24' E 139°45'0 0.0
2018-Jun-12 15:00N 35°24' E 139°45'0 0.0
2018-Jun-12 14:30N 35°24' E 139°45'0 0.0
2018-Jun-12 13:57N 35°24' E 139°45'0 0.0
2018-Jun-12 13:27N 35°24' E 139°45'0 0.0
2018-Jun-12 13:00N 35°24' E 139°45'0 0.0
2018-Jun-12 12:27N 35°24' E 139°45'0 0.0
2018-Jun-12 12:00N 35°24' E 139°45'0 0.0
2018-Jun-12 11:30N 35°24' E 139°45'0 0.0
2018-Jun-12 10:45N 35°24' E 139°45'0 0.0
2018-Jun-12 10:27N 35°24' E 139°45'0 0.0
2018-Jun-12 10:00N 35°24' E 139°45'0 0.0
2018-Jun-12 09:30N 35°24' E 139°45'0 0.0
2018-Jun-12 09:00N 35°24' E 139°45'0 0.0
2018-Jun-12 08:30N 35°24' E 139°45'0 0.2
2018-Jun-12 08:00N 35°24' E 139°45'0 0.0
2018-Jun-12 07:30N 35°24' E 139°45'0 0.1
2018-Jun-12 06:57N 35°24' E 139°45'0 0.1
2018-Jun-12 06:30N 35°24' E 139°45'510.6
2018-Jun-12 06:00N 35°28' E 139°50'611.9
2018-Jun-12 05:30N 35°31' E 139°56'5 0.7
2018-Jun-11 22:05N 35°31' E 140°03'0 0.7
2018-Jun-11 21:59N 35°31' E 140°02'3 5.9
2018-Jun-11 21:29N 35°31' E 139°59'5 9.4
2018-Jun-11 20:58N 35°33' E 139°54'0 0.0
2018-Jun-11 20:24N 35°33' E 139°54'0 0.0
2018-Jun-11 20:00N 35°33' E 139°54'0 0.0
2018-Jun-11 19:24N 35°33' E 139°54'0 0.0
2018-Jun-11 19:00N 35°33' E 139°54'0 0.0
2018-Jun-11 18:30N 35°33' E 139°54'0 0.0
2018-Jun-11 17:53N 35°33' E 139°54'0 0.0
2018-Jun-10 18:53N 35°33' E 139°54'0 0.0
2018-Jun-10 18:26N 35°33' E 139°54'0 0.0
2018-Jun-10 17:59N 35°33' E 139°54'0 0.0
2018-Jun-10 15:56N 35°33' E 139°54'0 0.0
2018-Jun-10 08:08N 35°33' E 139°53'0 0.1
2018-Jun-10 07:23N 35°33' E 139°54'0 0.0
2018-Jun-10 06:56N 35°33' E 139°54'0 0.0
2018-Jun-10 06:17N 35°33' E 139°54'0 0.8
2018-Jun-10 06:00N 35°33' E 139°54'8 1.1
2018-Jun-09 22:49N 35°32' E 140°03'2 4.7
2018-Jun-09 22:19N 35°32' E 140°01'410.9
2018-Jun-09 21:55N 35°29' E 139°56'2 3.9
2018-Jun-09 21:30N 35°28' E 139°54'0 0.0
2018-Jun-09 20:59N 35°28' E 139°54'0 0.0
2018-Jun-09 20:29N 35°28' E 139°54'0 0.0
2018-Jun-09 19:56N 35°28' E 139°54'0 0.0
2018-Jun-09 19:29N 35°28' E 139°54'0 0.0
2018-Jun-09 18:59N 35°28' E 139°54'0 0.0
2018-Jun-09 18:29N 35°28' E 139°54'0 0.0
2018-Jun-09 17:56N 35°28' E 139°54'0 0.1
2018-Jun-09 17:30N 35°29' E 139°54'4 7.8
2018-Jun-09 17:01N 35°27' E 139°50'611.4
2018-Jun-09 16:31N 35°23' E 139°46'611.2
2018-Jun-09 16:01N 35°17' E 139°45'611.7
2018-Jun-09 15:30N 35°11' E 139°46'  
Track history (hours):
 
Tides and Currents Weather Stations Pressure Air Temp Water Temp Dewpoint Dewpoint Depression Visibility Wind Speed Wind Dir Waves Ship Positions

Tomofujimaru

Last reported at 2018-Jun-19 10:00 UTC. Time now 2018-Jun-19 10:25 UTC.
Position N 34°35' E 135°04'.

Length 104 m; draft 5.4 m.

Type: Tanker. MMSI: 431501737.

Date/timePositionNaut miles runAvg speedWind from/ knotsBaromVisibWave heightAir tempDewpointWater temp
2018-Jun-19 10:00N 34°35' E 135°04'714.9
2018-Jun-19 09:30N 34°36' E 134°55'815.3
2018-Jun-19 09:00N 34°32' E 134°47'713.9
2018-Jun-19 08:30N 34°30' E 134°39'713.8
2018-Jun-19 08:00N 34°27' E 134°31'713.6
2018-Jun-19 07:28N 34°24' E 134°23'  
2018-Jun-15 17:07N 34°25' E 134°23'212.7
2018-Jun-15 16:59N 34°26' E 134°25'613.2
2018-Jun-15 16:30N 34°28' E 134°32'713.1
2018-Jun-15 16:00N 34°31' E 134°40'714.0
2018-Jun-15 15:30N 34°33' E 134°48'814.7
2018-Jun-15 14:59N 34°37' E 134°56'613.2
2018-Jun-15 14:30N 34°36' E 135°04'612.7
2018-Jun-15 14:00N 34°36' E 135°11'713.1
2018-Jun-15 13:30N 34°36' E 135°19'510.8
2018-Jun-15 13:00N 34°39' E 135°25'0 0.8
2018-Jun-15 12:28N 34°40' E 135°25'0 0.0
2018-Jun-15 11:58N 34°40' E 135°25'0 0.0
2018-Jun-14 22:06N 34°40' E 135°25'0 0.0
2018-Jun-14 22:00N 34°40' E 135°25'2 3.6
2018-Jun-14 21:30N 34°38' E 135°24'4 8.9
2018-Jun-14 21:00N 34°36' E 135°19'0 0.0
2018-Jun-14 20:29N 34°36' E 135°19'0 0.0
2018-Jun-14 19:55N 34°36' E 135°19'0 0.0
2018-Jun-14 19:25N 34°36' E 135°19'0 0.0
2018-Jun-14 18:55N 34°36' E 135°19'0 0.0
2018-Jun-14 18:25N 34°36' E 135°19'0 0.0
2018-Jun-14 17:55N 34°36' E 135°19'0 0.0
2018-Jun-14 17:25N 34°36' E 135°19'0 0.0
2018-Jun-14 16:55N 34°36' E 135°19'0 0.0
2018-Jun-14 16:28N 34°36' E 135°19'0 0.0
2018-Jun-14 15:55N 34°36' E 135°19'0 0.0
2018-Jun-14 15:19N 34°36' E 135°19'0 0.0
2018-Jun-14 14:55N 34°36' E 135°19'0 0.0
2018-Jun-14 14:25N 34°36' E 135°19'0 0.0
2018-Jun-14 13:55N 34°36' E 135°19'0 0.0
2018-Jun-14 13:25N 34°36' E 135°19'0 0.0
2018-Jun-14 12:49N 34°36' E 135°19'0 0.0
2018-Jun-14 12:25N 34°36' E 135°19'0 0.0
2018-Jun-14 11:55N 34°36' E 135°19'0 0.1
2018-Jun-14 11:25N 34°36' E 135°19'0 0.0
2018-Jun-14 10:43N 34°36' E 135°19'0 0.0
2018-Jun-14 10:25N 34°36' E 135°19'0 0.1
2018-Jun-14 09:55N 34°36' E 135°19'2 4.8
2018-Jun-14 09:30N 34°35' E 135°17'712.9
2018-Jun-14 09:00N 34°29' E 135°13'613.1
2018-Jun-14 08:30N 34°24' E 135°08'713.5
2018-Jun-14 08:01N 34°20' E 135°02'612.5
2018-Jun-14 07:30N 34°14' E 134°59'611.5
2018-Jun-14 07:00N 34°08' E 134°59'713.3
2018-Jun-14 06:30N 34°01' E 134°60'713.2
2018-Jun-14 06:00N 33°55' E 135°01'612.1
2018-Jun-14 05:30N 33°49' E 135°05'23911.2
2018-Jun-13 08:09N 35°05' E 139°40'212.9
2018-Jun-13 07:58N 35°07' E 139°42'612.8
2018-Jun-13 07:30N 35°12' E 139°46'612.1
2018-Jun-13 07:00N 35°17' E 139°44'612.4
2018-Jun-13 06:30N 35°23' E 139°42'612.5
2018-Jun-13 06:00N 35°28' E 139°47'3 6.7
2018-Jun-13 05:30N 35°32' E 139°46'0 0.1
2018-Jun-13 05:00N 35°32' E 139°46'0 0.0
2018-Jun-12 22:31N 35°32' E 139°46'0 0.0
2018-Jun-12 22:30N 35°32' E 139°46'1 1.4
2018-Jun-12 22:00N 35°31' E 139°46'4 8.4
2018-Jun-12 21:30N 35°28' E 139°42'4 8.5
2018-Jun-12 21:00N 35°25' E 139°45'1 1.5
2018-Jun-12 20:30N 35°24' E 139°45'0 0.0
2018-Jun-12 19:57N 35°24' E 139°45'0 0.0
2018-Jun-12 19:30N 35°24' E 139°45'0 0.0
2018-Jun-12 19:00N 35°24' E 139°45'0 0.0
2018-Jun-12 18:30N 35°24' E 139°45'0 0.0
2018-Jun-12 18:00N 35°24' E 139°45'0 0.0
2018-Jun-12 17:30N 35°24' E 139°45'0 0.0
2018-Jun-12 17:00N 35°24' E 139°45'0 0.0
2018-Jun-12 16:30N 35°24' E 139°45'0 0.0
2018-Jun-12 16:00N 35°24' E 139°45'0 0.0
2018-Jun-12 15:30N 35°24' E 139°45'0 0.0
2018-Jun-12 15:00N 35°24' E 139°45'0 0.0
2018-Jun-12 14:30N 35°24' E 139°45'0 0.0
2018-Jun-12 13:57N 35°24' E 139°45'0 0.0
2018-Jun-12 13:27N 35°24' E 139°45'0 0.0
2018-Jun-12 13:00N 35°24' E 139°45'0 0.0
2018-Jun-12 12:27N 35°24' E 139°45'0 0.0
2018-Jun-12 12:00N 35°24' E 139°45'0 0.0
2018-Jun-12 11:30N 35°24' E 139°45'0 0.0
2018-Jun-12 10:45N 35°24' E 139°45'0 0.0
2018-Jun-12 10:27N 35°24' E 139°45'0 0.0
2018-Jun-12 10:00N 35°24' E 139°45'0 0.0
2018-Jun-12 09:30N 35°24' E 139°45'0 0.0
2018-Jun-12 09:00N 35°24' E 139°45'0 0.0
2018-Jun-12 08:30N 35°24' E 139°45'0 0.2
2018-Jun-12 08:00N 35°24' E 139°45'0 0.0
2018-Jun-12 07:30N 35°24' E 139°45'0 0.1
2018-Jun-12 06:57N 35°24' E 139°45'0 0.1
2018-Jun-12 06:30N 35°24' E 139°45'510.6
2018-Jun-12 06:00N 35°28' E 139°50'611.9
2018-Jun-12 05:30N 35°31' E 139°56'5 0.7
2018-Jun-11 22:05N 35°31' E 140°03'0 0.7
2018-Jun-11 21:59N 35°31' E 140°02'3 5.9
2018-Jun-11 21:29N 35°31' E 139°59'5 9.4
2018-Jun-11 20:58N 35°33' E 139°54'0 0.0
2018-Jun-11 20:24N 35°33' E 139°54'0 0.0
2018-Jun-11 20:00N 35°33' E 139°54'0 0.0
2018-Jun-11 19:24N 35°33' E 139°54'0 0.0
2018-Jun-11 19:00N 35°33' E 139°54'0 0.0
2018-Jun-11 18:30N 35°33' E 139°54'0 0.0
2018-Jun-11 17:53N 35°33' E 139°54'0 0.0
2018-Jun-10 18:53N 35°33' E 139°54'0 0.0
2018-Jun-10 18:26N 35°33' E 139°54'0 0.0
2018-Jun-10 17:59N 35°33' E 139°54'0 0.0
2018-Jun-10 15:56N 35°33' E 139°54'0 0.0
2018-Jun-10 08:08N 35°33' E 139°53'0 0.1
2018-Jun-10 07:23N 35°33' E 139°54'0 0.0
2018-Jun-10 06:56N 35°33' E 139°54'0 0.0
2018-Jun-10 06:17N 35°33' E 139°54'0 0.8
2018-Jun-10 06:00N 35°33' E 139°54'8 1.1
2018-Jun-09 22:49N 35°32' E 140°03'2 4.7
2018-Jun-09 22:19N 35°32' E 140°01'410.9
2018-Jun-09 21:55N 35°29' E 139°56'2 3.9
2018-Jun-09 21:30N 35°28' E 139°54'0 0.0
2018-Jun-09 20:59N 35°28' E 139°54'0 0.0
2018-Jun-09 20:29N 35°28' E 139°54'0 0.0
2018-Jun-09 19:56N 35°28' E 139°54'0 0.0
2018-Jun-09 19:29N 35°28' E 139°54'0 0.0
2018-Jun-09 18:59N 35°28' E 139°54'0 0.0
2018-Jun-09 18:29N 35°28' E 139°54'0 0.0
2018-Jun-09 17:56N 35°28' E 139°54'0 0.1
2018-Jun-09 17:30N 35°29' E 139°54'4 7.8
2018-Jun-09 17:01N 35°27' E 139°50'611.4
2018-Jun-09 16:31N 35°23' E 139°46'611.2
2018-Jun-09 16:01N 35°17' E 139°45'611.7
2018-Jun-09 15:30N 35°11' E 139°46'  

Dump ship's entire track history